Time;durP1;ratioP1;P1;durP2;ratioP2;P2;SDS_P1;SDS_P2;PMS_P1;PMS_P2;Temp;Humidity;BMP_temperature;BMP_pressure;BME280_temperature;BME280_humidity;BME280_pressure;Samples;Min_cycle;Max_cycle;Signal;HPM_P1;HPM_P2
2022/07/12 00:00:33;;;;;;;3.22;1.80;;;;;;;19.03;66.00;102490.88;5073570;27;99153;-34
2022/07/12 00:02:58;;;;;;;2.92;1.77;;;;;;;19.02;66.61;102483.59;5073909;27;97267;-33
2022/07/12 00:05:23;;;;;;;3.17;1.75;;;;;;;19.01;66.25;102492.84;5074455;27;96801;-34
2022/07/12 00:07:49;;;;;;;3.55;1.60;;;;;;;18.99;67.25;102492.94;5073808;27;97949;-34
2022/07/12 00:10:14;;;;;;;3.88;1.98;;;;;;;18.96;67.08;102484.94;5072592;27;108827;-34
2022/07/12 00:12:40;;;;;;;2.50;1.77;;;;;;;18.89;67.11;102484.47;5071627;27;96901;-33
2022/07/12 00:15:06;;;;;;;5.32;2.20;;;;;;;18.91;66.66;102494.50;5073958;27;96456;-34
2022/07/12 00:17:31;;;;;;;2.83;1.40;;;;;;;18.87;67.36;102502.06;5072024;27;101016;-34
2022/07/12 00:19:57;;;;;;;2.75;1.85;;;;;;;18.77;67.25;102482.59;5073820;27;97509;-34
2022/07/12 00:22:23;;;;;;;4.35;2.10;;;;;;;18.80;67.31;102485.13;5073359;27;96493;-34
2022/07/12 00:24:48;;;;;;;4.55;1.88;;;;;;;18.80;67.04;102487.88;5073429;27;96923;-34
2022/07/12 00:27:14;;;;;;;3.15;1.90;;;;;;;18.76;67.59;102485.41;5073189;27;97877;-34
2022/07/12 00:29:39;;;;;;;4.20;1.50;;;;;;;18.74;67.82;102484.66;5073781;27;97779;-34
2022/07/12 00:32:05;;;;;;;3.03;1.55;;;;;;;18.70;67.87;102477.63;5073461;27;104196;-34
2022/07/12 00:34:30;;;;;;;3.80;1.65;;;;;;;18.70;67.89;102485.88;5073198;27;96506;-34
2022/07/12 00:36:55;;;;;;;2.42;1.60;;;;;;;18.65;68.22;102475.19;5072533;27;99250;-33
2022/07/12 00:39:21;;;;;;;3.65;1.67;;;;;;;18.62;68.60;102473.56;5073251;27;97749;-33
2022/07/12 00:41:49;;;;;;;3.78;1.73;;;;;;;18.61;68.50;102482.75;5073278;27;96606;-34
2022/07/12 00:44:15;;;;;;;2.90;1.52;;;;;;;18.57;68.10;102463.91;5073606;27;96747;-33
2022/07/12 00:46:40;;;;;;;2.83;1.52;;;;;;;18.62;68.21;102478.16;5071994;27;97906;-33
2022/07/12 00:49:06;;;;;;;3.40;1.88;;;;;;;18.60;68.35;102482.88;5073187;27;97189;-34
2022/07/12 00:51:32;;;;;;;3.25;1.65;;;;;;;18.57;67.84;102481.22;5071718;27;96625;-34
2022/07/12 00:53:59;;;;;;;2.67;1.67;;;;;;;18.55;68.68;102479.59;5071980;27;96507;-33
2022/07/12 00:56:25;;;;;;;3.42;1.45;;;;;;;18.52;68.00;102477.94;5071114;27;101672;-34
2022/07/12 00:58:50;;;;;;;3.33;1.55;;;;;;;18.54;68.25;102492.41;5072649;27;99204;-34
2022/07/12 01:01:19;;;;;;;4.40;2.05;;;;;;;18.46;68.50;102478.34;5071298;27;96569;-34
2022/07/12 01:03:45;;;;;;;3.97;1.63;;;;;;;18.50;68.55;102479.03;5071461;27;96852;-34
2022/07/12 01:06:10;;;;;;;5.30;2.10;;;;;;;18.51;68.51;102487.13;5072486;27;97955;-34
2022/07/12 01:08:37;;;;;;;2.88;1.58;;;;;;;18.42;68.54;102461.22;5072855;27;97872;-34
2022/07/12 01:11:02;;;;;;;5.07;1.80;;;;;;;18.46;68.62;102467.38;5070806;27;96836;-34
2022/07/12 01:13:28;;;;;;;4.38;1.70;;;;;;;18.49;68.02;102480.00;5073059;27;96722;-34
2022/07/12 01:15:54;;;;;;;2.90;1.77;;;;;;;18.46;68.12;102467.38;5071159;27;101469;-34
2022/07/12 01:18:20;;;;;;;3.63;1.98;;;;;;;18.43;68.45;102462.09;5073200;27;97306;-33
2022/07/12 01:20:45;;;;;;;4.97;2.08;;;;;;;18.40;68.59;102454.06;5072875;27;96755;-33
2022/07/12 01:23:12;;;;;;;4.28;1.85;;;;;;;18.42;68.70;102454.84;5072899;27;96844;-34
2022/07/12 01:25:37;;;;;;;3.63;2.00;;;;;;;18.36;68.91;102447.03;5070478;27;100959;-34
2022/07/12 01:28:03;;;;;;;6.78;2.00;;;;;;;18.35;69.20;102445.28;5071214;27;100955;-34
2022/07/12 01:30:28;;;;;;;3.88;1.75;;;;;;;18.37;68.62;102451.53;5071139;27;98551;-33
2022/07/12 01:32:54;;;;;;;3.88;1.83;;;;;;;18.30;68.96;102441.97;5072269;27;96753;-34
2022/07/12 01:35:21;;;;;;;4.53;2.10;;;;;;;18.32;68.90;102450.97;5071091;27;100970;-34
2022/07/12 01:37:47;;;;;;;2.90;1.80;;;;;;;18.21;69.33;102447.13;5071131;27;101393;-34
2022/07/12 01:40:13;;;;;;;2.97;1.73;;;;;;;18.21;69.78;102449.84;5072344;27;96691;-33
2022/07/12 01:42:39;;;;;;;3.60;1.70;;;;;;;18.20;69.67;102461.78;5071519;27;96869;-33
2022/07/12 01:45:07;;;;;;;4.80;2.17;;;;;;;18.17;70.07;102461.13;5070947;27;101066;-33
2022/07/12 01:47:33;;;;;;;3.05;1.95;;;;;;;18.18;70.08;102468.38;5072189;27;100637;-34
2022/07/12 01:49:59;;;;;;;5.88;2.05;;;;;;;18.17;70.07;102478.47;5074002;27;96971;-34
2022/07/12 01:52:25;;;;;;;5.80;2.00;;;;;;;18.11;70.10;102467.91;5074429;27;97159;-34
2022/07/12 01:54:52;;;;;;;4.45;2.25;;;;;;;18.12;69.77;102475.16;5075708;27;98065;-33
2022/07/12 01:57:18;;;;;;;8.57;2.50;;;;;;;18.06;70.20;102475.56;5074065;27;100496;-34
2022/07/12 01:59:45;;;;;;;4.40;1.92;;;;;;;18.02;70.65;102468.56;5074478;27;96694;-34
2022/07/12 02:02:10;;;;;;;6.47;2.50;;;;;;;18.08;70.38;102481.84;5074303;27;96979;-33
2022/07/12 02:04:36;;;;;;;4.50;2.20;;;;;;;18.04;70.18;102483.00;5075486;27;106970;-33
2022/07/12 02:07:03;;;;;;;6.82;2.05;;;;;;;17.99;70.05;102477.84;5075795;27;99385;-33
2022/07/12 02:09:28;;;;;;;5.07;2.65;;;;;;;18.00;70.14;102487.84;5074024;27;96745;-34
2022/07/12 02:11:54;;;;;;;4.60;2.55;;;;;;;17.93;70.53;102478.25;5074987;27;96798;-33
2022/07/12 02:14:20;;;;;;;5.75;2.35;;;;;;;17.90;70.50;102483.97;5075475;27;97465;-33
2022/07/12 02:16:46;;;;;;;5.05;2.55;;;;;;;17.87;70.87;102480.53;5073892;27;101100;-33
2022/07/12 02:19:12;;;;;;;4.13;2.25;;;;;;;17.85;71.06;102480.63;5075662;27;96595;-33
2022/07/12 02:21:38;;;;;;;5.70;2.30;;;;;;;17.82;70.52;102489.06;5074214;27;96910;-33
2022/07/12 02:24:04;;;;;;;4.47;2.67;;;;;;;17.85;71.16;102493.44;5075130;27;97554;-34
2022/07/12 02:26:30;;;;;;;4.32;2.22;;;;;;;17.77;70.78;102481.09;5073753;27;102094;-33
2022/07/12 02:28:56;;;;;;;6.90;2.40;;;;;;;17.78;71.22;102492.94;5075513;27;96570;-33
2022/07/12 02:31:21;;;;;;;4.72;2.15;;;;;;;17.71;71.13;102481.53;5075684;27;96734;-33
2022/07/12 02:33:46;;;;;;;5.28;2.53;;;;;;;17.72;71.35;102482.38;5074950;27;99493;-34
2022/07/12 02:36:12;;;;;;;5.30;2.67;;;;;;;17.68;71.43;102480.81;5075078;27;101197;-33
2022/07/12 02:38:37;;;;;;;3.95;2.20;;;;;;;17.66;72.40;102475.44;5074754;27;96523;-33
2022/07/12 02:41:03;;;;;;;6.90;3.30;;;;;;;17.61;71.57;102475.75;5074768;27;106296;-34
2022/07/12 02:43:30;;;;;;;5.85;2.78;;;;;;;17.61;71.98;102478.50;5074887;27;98921;-34
2022/07/12 02:46:04;;;;;;;5.68;2.78;;;;;;;17.58;72.31;102475.94;5073508;27;101154;-34
2022/07/12 02:48:30;;;;;;;5.15;2.40;;;;;;;17.56;72.02;102477.03;5073722;27;96690;-34
2022/07/12 02:50:55;;;;;;;5.30;2.58;;;;;;;17.56;71.91;102485.25;5075189;27;96779;-34
2022/07/12 02:53:21;;;;;;;5.93;2.47;;;;;;;17.54;72.73;102488.09;5075335;27;96728;-33
2022/07/12 02:55:46;;;;;;;5.82;2.95;;;;;;;17.49;72.05;102473.78;5075321;27;98011;-33
2022/07/12 02:58:11;;;;;;;5.28;2.85;;;;;;;17.52;72.11;102486.41;5074380;27;96430;-34
2022/07/12 03:00:38;;;;;;;4.47;2.80;;;;;;;17.52;72.02;102489.16;5074228;27;96756;-33
2022/07/12 03:03:03;;;;;;;4.70;2.80;;;;;;;17.49;72.45;102489.34;5072750;27;101174;-33
2022/07/12 03:05:29;;;;;;;6.38;2.88;;;;;;;17.44;72.44;102477.81;5074711;27;97806;-34
2022/07/12 03:07:54;;;;;;;5.95;2.65;;;;;;;17.39;71.85;102470.78;5074579;27;96497;-34
2022/07/12 03:10:20;;;;;;;6.88;2.85;;;;;;;17.38;71.99;102482.72;5074004;27;96754;-33
2022/07/12 03:12:45;;;;;;;5.32;2.88;;;;;;;17.40;71.74;102496.34;5074942;27;97872;-33
2022/07/12 03:15:11;;;;;;;5.68;2.78;;;;;;;17.38;71.80;102484.59;5072918;27;105286;-33
2022/07/12 03:17:36;;;;;;;5.40;2.80;;;;;;;17.31;72.62;102483.22;5074849;27;96471;-33
2022/07/12 03:20:05;;;;;;;5.18;2.83;;;;;;;17.31;72.22;102489.56;5075127;27;96881;-34
2022/07/12 03:22:31;;;;;;;5.20;2.85;;;;;;;17.32;72.71;102495.94;5074174;27;99311;-33
2022/07/12 03:24:56;;;;;;;3.95;2.30;;;;;;;17.27;72.94;102498.09;5074207;27;103779;-34
2022/07/12 03:27:21;;;;;;;6.50;2.65;;;;;;;17.25;72.81;102491.81;5072500;27;97045;-33
2022/07/12 03:29:47;;;;;;;4.68;2.55;;;;;;;17.20;72.82;102490.25;5074468;27;96755;-33
2022/07/12 03:32:12;;;;;;;4.22;2.75;;;;;;;17.22;72.71;102492.03;5074278;27;100216;-34
2022/07/12 03:34:37;;;;;;;6.97;3.13;;;;;;;17.15;72.70;102488.78;5073914;27;97880;-34
2022/07/12 03:37:03;;;;;;;5.72;2.83;;;;;;;17.16;72.17;102490.53;5074418;27;96615;-33
2022/07/12 03:39:29;;;;;;;4.40;2.60;;;;;;;17.11;72.40;102487.22;5074332;27;96830;-34
2022/07/12 03:41:54;;;;;;;5.60;3.00;;;;;;;17.12;72.55;102486.25;5074217;27;98012;-34
2022/07/12 03:44:20;;;;;;;4.53;2.38;;;;;;;17.11;72.66;102487.22;5074325;27;100609;-34
2022/07/12 03:46:45;;;;;;;6.95;3.15;;;;;;;17.08;72.91;102490.16;5074262;27;96596;-33
2022/07/12 03:49:10;;;;;;;4.95;2.58;;;;;;;17.06;72.53;102492.09;5073854;27;96741;-34
2022/07/12 03:51:36;;;;;;;10.20;2.40;;;;;;;17.10;73.37;102507.38;5073260;27;96697;-33
2022/07/12 03:54:01;;;;;;;8.25;2.83;;;;;;;17.11;73.06;102500.91;5073702;27;111298;-33
2022/07/12 03:59:10;;;;;;;7.82;2.88;;;;;;;17.05;73.07;102512.25;5074070;27;96758;-33
2022/07/12 04:01:36;;;;;;;4.75;2.83;;;;;;;17.09;72.83;102508.31;5073528;27;99198;-33
2022/07/12 04:04:02;;;;;;;5.72;2.50;;;;;;;17.07;73.10;102504.81;5073264;27;99760;-34
2022/07/12 04:06:27;;;;;;;5.70;2.83;;;;;;;17.03;73.60;102495.91;5074022;27;96644;-33
2022/07/12 04:08:53;;;;;;;7.68;3.25;;;;;;;17.04;72.52;102488.56;5074660;27;96721;-33
2022/07/12 04:11:18;;;;;;;7.28;2.78;;;;;;;17.03;72.85;102489.56;5072954;27;97348;-33
2022/07/12 04:13:43;;;;;;;11.40;2.80;;;;;;;17.12;73.02;102505.41;5072974;27;115889;-33
2022/07/12 04:16:09;;;;;;;5.10;2.70;;;;;;;17.07;73.04;102496.63;5073091;27;96546;-33
2022/07/12 04:18:34;;;;;;;4.65;2.65;;;;;;;17.11;73.54;102500.91;5073144;27;96849;-33
2022/07/12 04:20:59;;;;;;;5.00;2.88;;;;;;;17.17;73.00;102501.41;5073405;27;99907;-34
2022/07/12 04:23:25;;;;;;;9.15;2.90;;;;;;;17.23;72.98;102511.06;5072946;27;110591;-33
2022/07/12 04:25:51;;;;;;;6.10;2.95;;;;;;;17.21;72.86;102502.09;5073651;27;96466;-34
2022/07/12 04:28:17;;;;;;;5.40;2.92;;;;;;;17.26;72.94;102512.78;5072007;27;96896;-33
2022/07/12 04:30:46;;;;;;;5.32;2.85;;;;;;;17.29;72.62;102512.56;5073429;27;97543;-33
2022/07/12 04:33:12;;;;;;;6.25;3.08;;;;;;;17.35;72.70;102520.38;5072110;27;100684;-33
2022/07/12 04:35:37;;;;;;;7.90;3.75;;;;;;;17.32;72.86;102507.75;5072304;27;96749;-33
2022/07/12 04:38:03;;;;;;;6.10;3.13;;;;;;;17.36;72.44;102514.81;5073560;27;96758;-34
2022/07/12 04:40:29;;;;;;;6.85;3.22;;;;;;;17.41;73.49;102506.28;5072749;27;97379;-33
2022/07/12 04:42:54;;;;;;;8.73;3.58;;;;;;;17.46;72.21;102508.75;5073209;27;97737;-33
2022/07/12 04:45:20;;;;;;;6.57;3.22;;;;;;;17.50;72.35;102508.44;5073421;27;96518;-33
2022/07/12 04:47:45;;;;;;;7.55;4.07;;;;;;;17.55;72.47;102510.91;5072772;27;96864;-32
2022/07/12 04:50:11;;;;;;;7.85;3.63;;;;;;;17.58;72.09;102507.94;5072498;27;112069;-34
2022/07/12 04:52:36;;;;;;;10.20;4.47;;;;;;;17.60;72.14;102504.13;5070105;27;100996;-33
2022/07/12 04:55:01;;;;;;;6.28;3.85;;;;;;;17.68;72.24;102505.50;5073069;27;96634;-33
2022/07/12 04:57:27;;;;;;;9.50;4.38;;;;;;;17.62;72.59;102490.34;5072344;27;96957;-33
2022/07/12 04:59:52;;;;;;;10.25;4.13;;;;;;;17.76;72.22;102503.16;5072994;27;98062;-33
2022/07/12 05:02:18;;;;;;;9.32;4.72;;;;;;;17.77;72.28;102502.16;5072007;27;120336;-33
2022/07/12 05:04:44;;;;;;;12.98;4.63;;;;;;;17.87;71.61;102511.56;5072220;27;96636;-33
2022/07/12 05:07:09;;;;;;;9.73;5.18;;;;;;;17.91;72.32;102509.50;5070909;27;97058;-34
2022/07/12 05:09:34;;;;;;;12.93;4.90;;;;;;;17.87;72.95;102506.06;5072434;27;97872;-34
2022/07/12 05:12:00;;;;;;;11.55;5.53;;;;;;;17.88;72.48;102510.59;5071710;27;99908;-34
2022/07/12 05:14:25;;;;;;;9.70;5.15;;;;;;;18.00;73.07;102520.75;5072244;27;115017;-33
2022/07/12 05:16:50;;;;;;;13.50;5.50;;;;;;;17.98;72.30;102522.69;5071981;27;96826;-33
2022/07/12 05:19:16;;;;;;;12.40;5.88;;;;;;;18.07;73.25;102526.72;5071464;27;112402;-34
2022/07/12 05:21:42;;;;;;;11.93;5.43;;;;;;;18.09;72.21;102530.22;5069157;27;99316;-34
2022/07/12 05:24:08;;;;;;;10.77;4.90;;;;;;;18.20;71.98;102532.25;5072787;27;97114;-33
2022/07/12 05:26:34;;;;;;;12.85;5.22;;;;;;;18.17;72.19;102522.34;5074437;27;96983;-34
2022/07/12 05:28:59;;;;;;;12.20;5.00;;;;;;;18.27;72.02;102529.97;5074724;27;98578;-33
2022/07/12 05:31:25;;;;;;;11.43;5.07;;;;;;;18.32;71.65;102523.19;5076145;27;97319;-33
2022/07/12 05:33:50;;;;;;;12.13;5.63;;;;;;;18.43;71.92;102539.81;5076055;27;96824;-33
2022/07/12 05:36:16;;;;;;;9.93;6.03;;;;;;;18.52;72.01;102545.63;5076138;27;96791;-33
2022/07/12 05:38:41;;;;;;;12.02;6.57;;;;;;;18.54;72.60;102532.69;5076208;27;97879;-33
2022/07/12 05:41:06;;;;;;;19.13;5.88;;;;;;;18.58;72.17;102529.63;5076153;27;97209;-34
2022/07/12 05:43:32;;;;;;;21.33;7.20;;;;;;;18.66;73.24;102535.50;5076218;27;96534;-33
2022/07/12 05:45:57;;;;;;;12.73;5.90;;;;;;;18.79;71.46;102542.91;5074886;27;96522;-34
2022/07/12 05:48:22;;;;;;;17.40;6.30;;;;;;;18.81;72.45;102543.69;5073820;27;117744;-34
2022/07/12 05:50:48;;;;;;;15.82;7.20;;;;;;;18.87;71.71;102538.63;5074762;27;98444;-34
2022/07/12 05:53:22;;;;;;;15.90;7.00;;;;;;;18.95;71.43;102531.72;5074889;27;96507;-34
2022/07/12 05:55:52;;;;;;;21.67;7.63;;;;;;;18.96;71.81;102542.59;5074461;27;96700;-33
2022/07/12 05:58:18;;;;;;;13.70;7.25;;;;;;;18.97;71.18;102532.50;5073885;27;101438;-34
2022/07/12 06:00:45;;;;;;;13.88;6.95;;;;;;;18.99;70.56;102531.41;5075030;27;99067;-33
2022/07/12 06:03:11;;;;;;;14.10;6.10;;;;;;;19.06;70.71;102543.72;5074432;27;97513;-33
2022/07/12 06:05:37;;;;;;;16.98;7.05;;;;;;;19.08;70.78;102535.38;5075626;27;96786;-33
2022/07/12 06:08:02;;;;;;;14.82;5.88;;;;;;;19.15;70.99;102539.44;5075534;27;99158;-33
2022/07/12 06:10:27;;;;;;;16.55;7.03;;;;;;;19.24;70.50;102538.78;5075511;27;97343;-33
2022/07/12 06:13:05;;;;;;;17.88;6.60;;;;;;;19.35;70.26;102537.13;5075648;27;96676;-33
2022/07/12 06:15:30;;;;;;;14.13;6.63;;;;;;;19.37;70.52;102546.16;5075612;27;96822;-34
2022/07/12 06:17:56;;;;;;;16.13;7.30;;;;;;;19.44;70.28;102553.84;5075132;27;97950;-33
2022/07/12 06:20:22;;;;;;;15.00;7.65;;;;;;;19.39;70.24;102550.53;5075398;27;97771;-33
2022/07/12 06:22:47;;;;;;;14.82;7.32;;;;;;;19.35;70.24;102545.38;5075354;27;96482;-33
2022/07/12 06:25:13;;;;;;;18.73;7.28;;;;;;;19.36;70.61;102548.03;5074993;27;103492;-33
2022/07/12 06:27:39;;;;;;;16.88;7.78;;;;;;;19.45;70.48;102550.13;5075279;27;97932;-34
2022/07/12 06:30:05;;;;;;;19.40;7.93;;;;;;;19.52;70.20;102548.69;5075126;27;99156;-33
2022/07/12 06:32:30;;;;;;;16.92;7.25;;;;;;;19.53;70.07;102547.69;5073872;27;96729;-34
2022/07/12 06:34:56;;;;;;;22.33;7.80;;;;;;;19.63;69.76;102558.88;5075170;27;99181;-34
2022/07/12 06:37:22;;;;;;;17.45;8.60;;;;;;;19.69;69.95;102552.13;5075074;27;97908;-33
2022/07/12 06:39:48;;;;;;;17.65;8.15;;;;;;;19.81;69.46;102556.72;5056657;27;101097;-33
2022/07/12 06:42:13;;;;;;;16.73;8.48;;;;;;;19.97;68.65;102556.44;5074656;27;96626;-34
2022/07/12 06:44:38;;;;;;;17.95;8.18;;;;;;;20.07;68.44;102545.63;5075410;27;96804;-33
2022/07/12 06:47:04;;;;;;;14.13;6.93;;;;;;;20.17;68.32;102554.09;5075044;27;97325;-33
2022/07/12 06:49:30;;;;;;;15.45;6.93;;;;;;;20.19;67.98;102552.06;5074683;27;99093;-33
2022/07/12 06:51:55;;;;;;;18.73;7.57;;;;;;;20.31;67.69;102564.94;5074972;27;96582;-33
2022/07/12 06:54:20;;;;;;;21.65;7.07;;;;;;;20.34;67.79;102562.81;5075134;27;96867;-33
2022/07/12 06:56:46;;;;;;;16.42;7.10;;;;;;;20.43;67.42;102568.63;5074768;27;97441;-33
2022/07/12 06:59:11;;;;;;;17.30;6.80;;;;;;;20.52;67.32;102562.41;5074685;27;99165;-34
2022/07/12 07:01:37;;;;;;;20.45;6.95;;;;;;;20.57;67.03;102565.75;5074909;27;96493;-33
2022/07/12 07:04:03;;;;;;;20.75;6.85;;;;;;;20.67;66.62;102571.41;5074560;27;96830;-33
2022/07/12 07:06:29;;;;;;;15.40;6.95;;;;;;;20.71;66.16;102556.41;5072637;27;101938;-33
2022/07/12 07:08:54;;;;;;;14.95;6.32;;;;;;;20.75;66.47;102563.44;5074251;27;113407;-33
2022/07/12 07:11:19;;;;;;;16.45;6.68;;;;;;;20.86;66.20;102568.13;5074083;27;96854;-34
2022/07/12 07:13:45;;;;;;;15.50;6.72;;;;;;;20.84;66.18;102565.47;5075138;27;96792;-33
2022/07/12 07:16:10;;;;;;;14.70;6.40;;;;;;;20.92;66.11;102564.88;5074661;27;97973;-33
2022/07/12 07:18:35;;;;;;;15.70;6.82;;;;;;;20.91;66.28;102564.00;5074563;27;97456;-33
2022/07/12 07:21:01;;;;;;;17.83;7.50;;;;;;;21.12;65.85;102561.44;5074461;27;96474;-33
2022/07/12 07:23:26;;;;;;;15.30;6.90;;;;;;;21.37;65.15;102564.97;5074710;27;96827;-33
2022/07/12 07:25:52;;;;;;;13.15;5.78;;;;;;;21.47;64.78;102559.63;5074444;27;97324;-34
2022/07/12 07:28:17;;;;;;;16.02;6.43;;;;;;;21.59;64.58;102562.25;5074341;27;97774;-34
2022/07/12 07:30:55;;;;;;;11.05;6.13;;;;;;;21.71;64.08;102554.00;5073827;27;96628;-34
2022/07/12 07:33:22;;;;;;;13.50;5.35;;;;;;;21.86;63.40;102552.75;5072759;27;99511;-34
2022/07/12 07:35:48;;;;;;;14.40;6.55;;;;;;;21.95;63.07;102552.00;5074481;27;97543;-34
2022/07/12 07:38:14;;;;;;;12.95;5.68;;;;;;;21.90;63.09;102545.97;5072712;27;100797;-33
2022/07/12 07:40:40;;;;;;;11.20;5.45;;;;;;;21.93;63.09;102555.88;5072637;27;96681;-34
2022/07/12 07:43:05;;;;;;;13.45;5.45;;;;;;;22.00;63.37;102557.09;5074269;27;96942;-34
2022/07/12 07:45:30;;;;;;;14.10;6.10;;;;;;;21.99;63.22;102567.28;5073364;27;97869;-33
2022/07/12 07:47:56;;;;;;;14.27;5.60;;;;;;;21.92;63.55;102551.38;5074537;27;97652;-34
2022/07/12 07:50:21;;;;;;;12.77;6.45;;;;;;;21.90;63.53;102561.66;5073870;27;96613;-33
2022/07/12 07:52:48;;;;;;;15.95;6.03;;;;;;;21.87;63.48;102562.78;5073921;27;96809;-34
2022/07/12 07:55:14;;;;;;;12.23;5.75;;;;;;;21.86;63.40;102558.28;5073024;27;99374;-34
2022/07/12 07:57:39;;;;;;;14.90;6.15;;;;;;;21.82;63.76;102552.13;5073376;27;99270;-34
2022/07/12 08:00:05;;;;;;;18.27;6.20;;;;;;;21.73;63.49;102558.38;5073954;27;103807;-33
2022/07/12 08:02:31;;;;;;;15.38;5.65;;;;;;;21.59;63.88;102558.63;5072452;27;96875;-33
2022/07/12 08:04:56;;;;;;;14.73;6.70;;;;;;;21.52;63.81;102561.00;5073792;27;97970;-33
2022/07/12 08:07:21;;;;;;;14.90;6.13;;;;;;;21.46;64.00;102553.25;5073189;27;112384;-33
2022/07/12 08:09:47;;;;;;;11.45;6.13;;;;;;;21.63;63.57;102551.88;5073902;27;96628;-33
2022/07/12 08:12:12;;;;;;;14.80;5.75;;;;;;;21.87;63.38;102559.16;5074085;27;96776;-34
2022/07/12 08:14:37;;;;;;;12.23;6.03;;;;;;;21.90;63.27;102550.59;5073170;27;110960;-33
2022/07/12 08:17:03;;;;;;;12.30;5.88;;;;;;;22.13;62.76;102568.91;5073613;27;97284;-33
2022/07/12 08:19:28;;;;;;;7.25;3.53;;;;;;;22.30;61.36;102569.41;5071752;27;97167;-34
2022/07/12 08:21:54;;;;;;;8.60;3.90;;;;;;;22.14;60.98;102558.72;5073631;27;96785;-33
2022/07/12 08:24:19;;;;;;;12.20;3.92;;;;;;;21.99;61.44;102560.88;5072785;27;102428;-34
2022/07/12 08:26:44;;;;;;;8.20;4.50;;;;;;;22.06;61.80;102565.75;5073149;27;99111;-34
2022/07/12 08:29:10;;;;;;;8.20;4.05;;;;;;;22.27;60.63;102568.66;5073334;27;96518;-34
2022/07/12 08:31:36;;;;;;;9.52;4.25;;;;;;;22.59;61.26;102575.22;5073378;27;96804;-33
2022/07/12 08:34:01;;;;;;;12.40;4.38;;;;;;;22.82;59.97;102564.97;5073146;27;98083;-33
2022/07/12 08:36:27;;;;;;;8.18;3.75;;;;;;;23.11;60.12;102565.22;5073727;27;97764;-34
2022/07/12 08:38:52;;;;;;;8.57;3.78;;;;;;;23.32;58.88;102555.00;5073324;27;96599;-34
2022/07/12 08:41:17;;;;;;;9.32;3.47;;;;;;;23.48;57.20;102560.06;5073599;27;96811;-34
2022/07/12 08:43:43;;;;;;;5.50;2.90;;;;;;;23.62;57.25;102557.94;5072467;27;110256;-34
2022/07/12 08:46:13;;;;;;;6.57;3.78;;;;;;;23.59;56.40;102555.44;5071739;27;97890;-34
2022/07/12 08:48:40;;;;;;;8.15;3.60;;;;;;;23.83;56.43;102575.38;5071847;27;96668;-33
2022/07/12 08:51:07;;;;;;;7.80;3.78;;;;;;;23.79;57.10;102556.44;5071766;27;96597;-34
2022/07/12 08:53:33;;;;;;;9.57;4.07;;;;;;;23.78;56.93;102558.34;5071449;27;101373;-34
2022/07/12 08:55:59;;;;;;;10.00;3.90;;;;;;;23.95;56.94;102565.09;5071330;27;101171;-34
2022/07/12 08:58:25;;;;;;;9.65;4.50;;;;;;;23.96;55.04;102564.09;5072136;27;96471;-33
2022/07/12 09:00:50;;;;;;;8.65;3.88;;;;;;;24.10;55.86;102558.16;5073349;27;96868;-34
2022/07/12 09:03:17;;;;;;;8.35;3.97;;;;;;;24.41;54.35;102565.50;5072980;27;97977;-33
2022/07/12 09:05:53;;;;;;;9.98;4.15;;;;;;;24.50;55.00;102561.91;5072772;27;99613;-33
2022/07/12 09:08:26;;;;;;;9.85;4.55;;;;;;;24.42;55.70;102548.75;5071071;27;97052;-33
2022/07/12 09:10:54;;;;;;;11.75;4.78;;;;;;;24.45;54.47;102545.69;5071137;27;96771;-34
2022/07/12 09:13:40;;;;;;;11.57;4.63;;;;;;;24.46;54.18;102557.66;5071234;27;101226;-33
2022/07/12 09:16:14;;;;;;;8.73;3.97;;;;;;;24.63;55.02;102554.19;5072532;27;97714;-33
2022/07/12 09:18:39;;;;;;;10.07;3.75;;;;;;;24.70;53.85;102548.97;5071165;27;96715;-33
2022/07/12 09:21:04;;;;;;;8.45;3.75;;;;;;;24.87;54.34;102544.56;5073035;27;96889;-34
2022/07/12 09:23:30;;;;;;;11.18;4.90;;;;;;;25.05;53.77;102551.13;5072791;27;97905;-34
2022/07/12 09:25:55;;;;;;;14.23;4.68;;;;;;;25.19;53.04;102566.44;5073077;27;97784;-34
2022/07/12 09:28:21;;;;;;;8.38;4.20;;;;;;;25.40;53.42;102560.69;5071770;27;117973;-33
2022/07/12 09:30:53;;;;;;;9.57;4.10;;;;;;;25.48;51.07;102559.94;5072617;27;96781;-33
2022/07/12 09:36:13;;;;;;;8.10;3.78;;;;;;;25.57;51.60;102559.03;5070627;27;97007;-34
2022/07/12 09:39:00;;;;;;;8.43;3.72;;;;;;;25.83;51.58;102560.09;5072840;27;97235;-34
2022/07/12 09:41:27;;;;;;;36.95;4.53;;;;;;;25.88;51.69;102545.78;5071106;27;96855;-34
2022/07/12 09:43:53;;;;;;;8.40;3.80;;;;;;;25.84;52.10;102545.22;5070962;27;100775;-34
2022/07/12 09:46:18;;;;;;;11.73;3.85;;;;;;;26.05;52.02;102553.31;5070977;27;100807;-34
2022/07/12 09:48:45;;;;;;;11.05;4.30;;;;;;;26.20;51.53;102536.13;5072625;27;96542;-34
2022/07/12 09:51:13;;;;;;;8.27;3.70;;;;;;;26.41;50.91;102546.94;5071302;27;96796;-33
2022/07/12 09:53:43;;;;;;;7.97;3.83;;;;;;;26.27;50.44;102545.59;5072134;27;97415;-34
2022/07/12 09:56:14;;;;;;;9.07;3.42;;;;;;;26.50;51.13;102557.09;5070607;27;101008;-34
2022/07/12 09:58:47;;;;;;;9.75;4.05;;;;;;;26.34;46.10;102549.50;5071843;27;96801;-33
2022/07/12 10:01:15;;;;;;;7.43;3.72;;;;;;;26.26;49.21;102544.69;5070902;27;96792;-34
2022/07/12 10:03:42;;;;;;;7.97;3.85;;;;;;;26.41;47.39;102546.94;5070535;27;100789;-33
2022/07/12 10:06:09;;;;;;;7.82;4.35;;;;;;;26.47;47.64;102555.50;5070599;27;101004;-34
2022/07/12 10:08:35;;;;;;;8.75;4.32;;;;;;;26.44;48.83;102557.75;5071961;27;96773;-34
2022/07/12 10:11:01;;;;;;;10.75;4.22;;;;;;;26.49;49.56;102567.34;5075396;27;96805;-34
2022/07/12 10:13:27;;;;;;;9.18;4.28;;;;;;;26.62;48.88;102564.22;5074069;27;100999;-33
2022/07/12 10:15:58;;;;;;;13.45;4.50;;;;;;;26.78;48.37;102555.16;5074483;27;101031;-34
2022/07/12 10:18:23;;;;;;;10.30;4.03;;;;;;;26.81;49.57;102560.41;5074229;27;96681;-33
2022/07/12 10:20:49;;;;;;;8.10;4.30;;;;;;;26.83;48.47;102563.03;5075131;27;109395;-35
2022/07/12 10:23:35;;;;;;;10.85;4.75;;;;;;;26.74;46.05;102550.06;5074564;27;99466;-33
2022/07/12 10:26:23;;;;;;;10.93;4.10;;;;;;;26.82;47.88;102555.72;5073940;27;100959;-34
2022/07/12 10:29:06;;;;;;;13.73;5.25;;;;;;;26.87;46.99;102559.75;5075662;27;96631;-33
2022/07/12 10:31:36;;;;;;;10.38;4.18;;;;;;;26.96;43.99;102562.59;5075272;27;96854;-33
2022/07/12 10:34:10;;;;;;;26.60;5.25;;;;;;;27.22;46.75;102568.25;5074968;27;98201;-34
2022/07/12 10:36:54;;;;;;;9.05;4.07;;;;;;;27.21;46.71;102570.16;5073748;27;100718;-33
2022/07/12 10:39:20;;;;;;;13.95;4.47;;;;;;;27.19;46.35;102562.97;5075319;27;96548;-33
2022/07/12 10:42:06;;;;;;;12.35;5.13;;;;;;;27.09;42.96;102561.16;5073770;27;96869;-34
2022/07/12 10:44:38;;;;;;;13.65;4.85;;;;;;;27.15;45.62;102564.31;5074876;27;98004;-34
2022/07/12 10:47:07;;;;;;;9.80;3.97;;;;;;;27.19;44.75;102557.41;5073630;27;101083;-33
2022/07/12 10:49:34;;;;;;;8.63;3.67;;;;;;;27.21;46.96;102547.91;5073164;27;97066;-33
2022/07/12 10:52:11;;;;;;;9.48;4.15;;;;;;;27.59;45.93;102561.53;5073580;27;97070;-33
2022/07/12 10:54:42;;;;;;;9.05;4.13;;;;;;;27.75;44.86;102553.28;5075138;27;98017;-34
2022/07/12 10:57:08;;;;;;;14.07;4.10;;;;;;;27.93;45.07;102545.72;5073140;27;100877;-34
2022/07/12 10:59:36;;;;;;;8.85;3.83;;;;;;;27.99;44.86;102549.75;5065641;27;96624;-34
2022/07/12 11:02:01;;;;;;;11.40;3.85;;;;;;;28.10;45.25;102546.69;5052986;27;96885;-34
2022/07/12 11:04:28;;;;;;;9.57;4.88;;;;;;;28.15;44.38;102552.63;5052865;27;101029;-34
2022/07/12 11:06:56;;;;;;;6.80;3.45;;;;;;;28.26;44.04;102556.13;5054466;27;97833;-34
2022/07/12 11:09:23;;;;;;;7.30;3.38;;;;;;;28.12;43.74;102554.84;5053012;27;96742;-34
2022/07/12 11:11:50;;;;;;;6.35;3.60;;;;;;;28.19;43.16;102555.91;5052532;27;96746;-34
2022/07/12 11:14:29;;;;;;;7.65;3.85;;;;;;;28.44;43.45;102542.06;5052052;27;101224;-34
2022/07/12 11:16:56;;;;;;;9.07;3.88;;;;;;;28.51;43.77;102554.31;5052709;27;101091;-34
2022/07/12 11:19:28;;;;;;;10.18;3.85;;;;;;;28.57;42.81;102537.75;5051964;27;96742;-34
2022/07/12 11:21:55;;;;;;;9.50;3.92;;;;;;;28.51;42.86;102537.59;5052367;27;96832;-34